createdAt,value
2023-05-08T00:00:42.252Z,5.38
2023-05-08T00:05:55.580Z,5.13
2023-05-08T00:11:00.974Z,6.23
2023-05-08T00:16:09.690Z,8.27
2023-05-08T00:21:15.140Z,8.00
2023-05-08T00:26:21.213Z,7.57
2023-05-08T00:31:29.356Z,5.13
2023-05-08T00:36:35.187Z,6.80
2023-05-08T00:41:40.604Z,4.73
2023-05-08T00:46:49.220Z,9.18
2023-05-08T00:51:58.549Z,4.63
2023-05-08T00:57:04.083Z,5.43
2023-05-08T01:02:12.183Z,8.67
2023-05-08T01:07:17.732Z,6.63
2023-05-08T01:12:29.435Z,6.50
2023-05-08T01:17:48.820Z,8.83
2023-05-08T01:23:29.079Z,6.95
2023-05-08T01:28:52.374Z,5.30
2023-05-08T01:34:09.833Z,8.93
2023-05-08T01:39:20.914Z,8.07
2023-05-08T01:44:31.671Z,7.07
2023-05-08T01:49:43.611Z,8.07
2023-05-08T01:55:11.717Z,9.40
2023-05-08T02:00:19.482Z,6.97
2023-05-08T02:05:30.501Z,9.30
2023-05-08T02:10:36.397Z,7.07
2023-05-08T02:15:42.501Z,8.48
2023-05-08T02:20:52.137Z,7.70
2023-05-08T02:25:59.143Z,7.63
2023-05-08T02:31:05.567Z,10.13
2023-05-08T02:36:18.790Z,7.90
2023-05-08T02:41:26.188Z,7.57
2023-05-08T02:46:40.013Z,8.13
2023-05-08T02:51:56.714Z,5.50
2023-05-08T02:57:09.572Z,11.33
2023-05-08T03:02:20.914Z,7.93
2023-05-08T03:07:31.064Z,8.32
2023-05-08T03:12:43.095Z,6.77
2023-05-08T03:17:50.427Z,6.82
2023-05-08T03:22:59.002Z,6.32
2023-05-08T03:28:06.910Z,6.93
2023-05-08T03:33:15.233Z,6.83
2023-05-08T03:38:23.739Z,5.75
2023-05-08T03:43:29.554Z,7.40
2023-05-08T03:48:35.926Z,7.00
2023-05-08T03:53:44.287Z,7.85
2023-05-08T03:58:53.461Z,6.53
2023-05-08T04:04:08.047Z,7.90
2023-05-08T04:09:25.702Z,8.00
2023-05-08T04:14:36.433Z,6.93
2023-05-08T04:19:49.250Z,7.53
2023-05-08T04:25:02.349Z,9.90
2023-05-08T04:30:09.532Z,7.68
2023-05-08T04:35:16.152Z,7.67
2023-05-08T04:40:25.354Z,6.40
2023-05-08T04:45:31.034Z,10.13
2023-05-08T04:50:36.716Z,8.20
2023-05-08T04:55:45.006Z,7.77
2023-05-08T05:00:51.006Z,8.93
2023-05-08T05:06:01.034Z,8.27
2023-05-08T05:11:09.654Z,9.70
2023-05-08T05:16:15.171Z,8.80
2023-05-08T05:21:20.712Z,9.30
2023-05-08T05:26:29.073Z,9.73
2023-05-08T05:31:34.854Z,8.65
2023-05-08T05:36:40.919Z,9.68
2023-05-08T05:41:49.217Z,10.87
2023-05-08T05:46:54.722Z,11.10
2023-05-08T05:52:00.457Z,10.45
2023-05-08T05:57:08.697Z,10.43
2023-05-08T06:02:19.063Z,13.90
2023-05-08T06:07:25.484Z,11.23
2023-05-08T06:12:33.553Z,13.17
2023-05-08T06:17:39.722Z,11.98
2023-05-08T06:22:45.338Z,11.68
2023-05-08T06:27:53.282Z,12.00
2023-05-08T06:32:59.065Z,10.85
2023-05-08T06:38:04.766Z,12.77
2023-05-08T06:43:12.755Z,13.40
2023-05-08T06:48:18.155Z,11.15
2023-05-08T06:53:23.622Z,10.27
2023-05-08T06:58:31.687Z,8.83
2023-05-08T07:03:37.219Z,10.57
2023-05-08T07:08:42.915Z,9.70
2023-05-08T07:13:51.153Z,10.03
2023-05-08T07:18:56.654Z,8.55
2023-05-08T07:24:02.159Z,7.10
2023-05-08T07:29:10.847Z,8.70
2023-05-08T07:34:16.230Z,8.07
2023-05-08T07:39:21.709Z,9.07
2023-05-08T07:44:31.750Z,7.50
2023-05-08T07:49:44.621Z,7.83
2023-05-08T07:54:50.084Z,7.28
2023-05-08T07:59:58.079Z,5.85
2023-05-08T08:05:03.582Z,6.40
2023-05-08T08:10:10.785Z,9.60
2023-05-08T08:15:18.806Z,6.68
2023-05-08T08:20:24.439Z,6.20
2023-05-08T08:25:30.431Z,7.77
2023-05-08T08:30:38.648Z,9.18
2023-05-08T08:35:44.072Z,6.22
2023-05-08T08:40:49.521Z,6.80
2023-05-08T08:46:01.389Z,5.95
2023-05-08T08:51:12.788Z,7.22
2023-05-08T08:56:19.467Z,9.57
2023-05-08T09:01:29.475Z,6.30
2023-05-08T09:06:38.746Z,8.55
2023-05-08T09:11:46.611Z,7.77
2023-05-08T09:17:00.255Z,5.60
2023-05-08T09:22:09.433Z,7.43
2023-05-08T09:27:24.359Z,5.43
2023-05-08T09:32:32.710Z,6.68
2023-05-08T09:37:41.745Z,5.82
2023-05-08T09:42:47.598Z,10.40
2023-05-08T09:47:55.810Z,5.67
2023-05-08T09:53:04.630Z,5.78
2023-05-08T09:58:10.138Z,4.95
2023-05-08T10:03:19.347Z,6.27
2023-05-08T10:08:26.808Z,7.15
2023-05-08T10:13:35.177Z,5.78
2023-05-08T10:18:48.881Z,6.70
2023-05-08T10:23:57.316Z,6.72
2023-05-08T10:29:10.180Z,7.25
2023-05-08T10:34:22.735Z,6.10
2023-05-08T10:39:28.700Z,9.23
2023-05-08T10:44:35.080Z,4.50
2023-05-08T10:49:52.211Z,7.90
2023-05-08T10:55:25.905Z,5.00
2023-05-08T11:00:34.893Z,5.97
2023-05-08T11:05:52.712Z,3.85
2023-05-08T11:11:08.121Z,2.20
2023-05-08T11:16:13.689Z,4.47
2023-05-08T11:21:24.211Z,4.40
2023-05-08T11:26:42.473Z,5.57
2023-05-08T11:31:56.210Z,4.82
2023-05-08T11:37:12.015Z,5.28
2023-05-08T11:42:38.730Z,4.13
2023-05-08T11:47:45.442Z,3.87
2023-05-08T11:52:54.648Z,4.85
2023-05-08T11:57:59.978Z,4.38
2023-05-08T12:03:10.379Z,4.17
2023-05-08T12:08:20.473Z,3.97
2023-05-08T12:13:27.617Z,4.70
2023-05-08T12:18:39.800Z,4.17
2023-05-08T12:23:48.271Z,4.38
2023-05-08T12:28:57.951Z,5.32
2023-05-08T12:34:04.899Z,5.37
2023-05-08T12:39:19.279Z,4.47
2023-05-08T12:44:27.084Z,3.85
2023-05-08T12:49:33.905Z,3.97
2023-05-08T12:54:50.333Z,5.07
2023-05-08T13:00:07.636Z,4.47
2023-05-08T13:05:13.088Z,2.85
2023-05-08T13:10:24.952Z,2.80
2023-05-08T13:15:31.809Z,2.85
2023-05-08T13:20:37.388Z,3.88
2023-05-08T13:25:45.459Z,3.90
2023-05-08T13:30:51.157Z,5.00
2023-05-08T13:35:57.101Z,5.28
2023-05-08T13:41:05.093Z,5.07
2023-05-08T13:46:10.545Z,6.73
2023-05-08T13:51:16.041Z,6.05
2023-05-08T13:56:24.030Z,5.65
2023-05-08T14:01:29.485Z,5.37
2023-05-08T14:06:35.245Z,3.45
2023-05-08T14:11:43.324Z,3.25
2023-05-08T14:16:51.582Z,2.60
2023-05-08T14:21:57.126Z,8.73
2023-05-08T14:27:06.262Z,3.40
2023-05-08T14:32:12.211Z,2.60
2023-05-08T14:37:17.898Z,3.73
2023-05-08T14:42:26.015Z,2.65
2023-05-08T14:47:33.189Z,3.22
2023-05-08T14:52:38.796Z,2.70
2023-05-08T14:57:46.989Z,2.08
2023-05-08T15:02:52.590Z,3.47
2023-05-08T15:07:59.482Z,3.40
2023-05-08T15:13:08.035Z,5.23
2023-05-08T15:18:14.234Z,3.75
2023-05-08T15:23:20.569Z,5.43
2023-05-08T15:28:28.888Z,4.60
2023-05-08T15:33:34.541Z,4.32
2023-05-08T15:38:39.902Z,5.40
2023-05-08T15:43:48.055Z,5.30
2023-05-08T15:48:53.401Z,6.20
2023-05-08T15:53:59.830Z,7.38
2023-05-08T15:59:08.365Z,7.50
2023-05-08T16:04:13.916Z,11.35
2023-05-08T16:09:19.321Z,8.63
2023-05-08T16:14:27.908Z,11.87
2023-05-08T16:19:36.187Z,7.43
2023-05-08T16:24:41.785Z,8.40
2023-05-08T16:29:49.938Z,7.90
2023-05-08T16:34:55.769Z,9.57
2023-05-08T16:40:02.690Z,10.95
2023-05-08T16:45:12.453Z,11.48
2023-05-08T16:50:21.298Z,10.40
2023-05-08T16:55:26.890Z,8.10
2023-05-08T17:00:35.023Z,9.75
2023-05-08T17:05:44.415Z,10.40
2023-05-08T17:10:54.394Z,9.93
2023-05-08T17:16:02.632Z,10.63
2023-05-08T17:21:08.233Z,9.45
2023-05-08T17:26:15.035Z,10.83
2023-05-08T17:31:23.523Z,10.68
2023-05-08T17:36:28.978Z,8.27
2023-05-08T17:41:37.152Z,9.30
2023-05-08T17:46:47.250Z,8.15
2023-05-08T17:51:52.683Z,6.95
2023-05-08T17:56:59.711Z,8.80
2023-05-08T18:02:08.524Z,7.27
2023-05-08T18:07:14.362Z,6.93
2023-05-08T18:12:19.773Z,7.70
2023-05-08T18:17:29.695Z,10.07
2023-05-08T18:22:35.176Z,7.97
2023-05-08T18:27:40.574Z,10.30
2023-05-08T18:32:49.324Z,7.83
2023-05-08T18:37:54.712Z,7.20
2023-05-08T18:43:02.026Z,7.38
2023-05-08T18:48:10.930Z,5.50
2023-05-08T18:53:17.312Z,5.60
2023-05-08T18:58:22.705Z,7.07
2023-05-08T19:03:30.841Z,5.35
2023-05-08T19:08:36.507Z,5.30
2023-05-08T19:13:41.970Z,8.05
2023-05-08T19:18:50.894Z,6.70
2023-05-08T19:23:56.307Z,6.70
2023-05-08T19:29:01.988Z,6.10
2023-05-08T19:34:10.078Z,8.45
2023-05-08T19:39:15.691Z,6.07
2023-05-08T19:44:21.312Z,6.40
2023-05-08T19:49:29.353Z,7.22
2023-05-08T19:54:34.798Z,10.48
2023-05-08T19:59:40.225Z,6.43
2023-05-08T20:05:18.201Z,6.38
2023-05-08T20:10:14.544Z,9.15
2023-05-08T20:15:20.251Z,9.33
2023-05-08T20:20:32.281Z,7.53
2023-05-08T20:25:37.705Z,7.35
2023-05-08T20:30:43.091Z,9.70
2023-05-08T20:35:52.775Z,9.93
2023-05-08T20:41:00.889Z,7.43
2023-05-08T20:46:07.018Z,8.15
2023-05-08T20:51:16.709Z,8.63
2023-05-08T20:56:22.279Z,7.00
2023-05-08T21:01:29.147Z,8.90
2023-05-08T21:06:38.581Z,13.10
2023-05-08T21:11:44.249Z,7.95
2023-05-08T21:16:50.377Z,8.98
2023-05-08T21:21:58.946Z,14.70
2023-05-08T21:27:04.901Z,8.20
2023-05-08T21:32:13.476Z,8.73
2023-05-08T21:37:21.509Z,9.35
2023-05-08T21:42:27.357Z,9.00
2023-05-08T21:47:32.919Z,9.73
2023-05-08T21:52:41.713Z,9.10
2023-05-08T21:57:47.772Z,10.73
2023-05-08T22:02:53.331Z,9.77
2023-05-08T22:08:01.905Z,9.65
2023-05-08T22:13:07.786Z,10.53
2023-05-08T22:18:13.656Z,7.20
2023-05-08T22:23:21.698Z,10.18
2023-05-08T22:28:27.038Z,9.50
2023-05-08T22:33:34.136Z,8.73
2023-05-08T22:38:42.381Z,8.50
2023-05-08T22:43:47.946Z,9.85
2023-05-08T22:48:53.365Z,10.50
2023-05-08T22:54:01.305Z,9.20
2023-05-08T22:59:07.012Z,13.00
2023-05-08T23:04:12.690Z,10.87
2023-05-08T23:09:20.711Z,11.43
2023-05-08T23:14:26.072Z,10.82
2023-05-08T23:19:31.376Z,9.83
2023-05-08T23:24:40.667Z,9.77
2023-05-08T23:29:46.031Z,11.00
2023-05-08T23:34:51.436Z,11.90
2023-05-08T23:39:59.642Z,11.27
2023-05-08T23:45:05.277Z,12.05
2023-05-08T23:50:10.962Z,11.13
2023-05-08T23:55:19.207Z,13.33
